Latest Weather Observations for Albion Park

IDN60801

Issued at 12:05 pm EST Thursday 21 August 2014 (issued every 30 minutes, with the page automatically refreshed every 10 minutes)

About weather observations | Map of weather stations | Latest weather observations for NSW | Other Formats
Station Details ID: 068241 Name: WOLLONGONG AIRPORT Lat: -34.56 Lon: 150.79 Height: 8.0 m
Data from the previous 72 hours. | See also: Recent months at Albion Park
Date/Time
EST
Temp
°C
App
Temp
°C
Dew
Point
Rel
Hum
%
Delta-T
°C
Wind Press
QNH
hPa
Press
MSL
hPa
Rain
since 9 am
mm
Dir
 
Spd
km/h
Gust
km/h
Spd
kts
Gust
kts
21/12:00pm 15.1 12.1 10.5 74 2.4 S 17 22 9 12 1029.4 1029.4 0.2
21/11:35am 14.9 10.9 10.3 74 2.4 S 22 28 12 15 1029.6 - 0.2
21/11:30am 15.3 12.0 11.5 78 2.0 S 20 24 11 13 1029.6 - 0.2
21/11:13am 14.9 13.5 10.9 77 2.1 SW 9 17 5 9 1029.7 - 0.2
21/11:00am 14.3 13.5 10.9 80 1.8 WSW 6 13 3 7 1029.8 1029.8 0.2
21/10:30am 13.5 11.9 11.4 87 1.1 SSW 11 17 6 9 1030.0 - 0.2
21/10:24am 13.3 11.7 11.5 89 1.0 SSW 11 13 6 7 1030.0 - 0.2
21/10:00am 12.4 11.1 11.1 92 0.7 SSW 9 11 5 6 1030.3 1030.3 0.2
21/09:59am 12.5 11.2 11.2 92 0.7 SSW 9 11 5 6 1030.3 - 0.2
21/09:46am 12.3 10.5 11.0 92 0.7 SSW 11 13 6 7 1030.3 - 0.0
21/09:30am 12.9 10.7 10.8 87 1.1 S 13 20 7 11 1030.1 - 0.0
21/09:00am 12.8 10.8 10.3 85 1.3 SW 11 13 6 7 1029.8 1029.8 0.4
21/08:38am 12.1 10.6 10.7 91 0.7 SW 9 13 5 7 1029.8 - 0.4
21/08:30am 11.7 10.1 10.3 91 0.7 SW 9 11 5 6 1029.8 - 0.4
21/08:23am 11.7 10.5 10.3 91 0.7 SW 7 11 4 6 1029.8 - 0.4
21/08:05am 11.8 10.5 10.0 89 0.9 SW 7 11 4 6 1029.6 - 0.2
21/08:04am 11.8 10.1 10.0 89 0.9 SW 9 11 5 6 1029.6 - 0.2
21/08:00am 11.8 10.5 9.9 88 1.0 SW 7 11 4 6 1029.6 1029.6 0.0
21/07:30am 11.4 9.7 9.8 90 0.8 SSW 9 13 5 7 1029.2 - 0.0
21/07:04am 11.1 9.4 10.0 93 0.6 SSW 9 13 5 7 1029.0 - 0.0
21/07:00am 10.8 9.1 9.9 94 0.5 SSW 9 11 5 6 1029.0 1029.0 0.0
21/06:46am 10.4 8.6 9.6 95 0.4 SSW 9 11 5 6 1028.8 - 0.0
21/06:30am 10.0 7.6 8.8 92 0.6 SSW 11 13 6 7 1028.6 - 0.0
21/06:00am 10.7 8.4 9.1 90 0.8 SSW 11 17 6 9 1028.2 1028.2 0.0
21/05:30am 11.5 8.2 9.6 88 1.0 S 17 22 9 12 1027.9 - 0.0
21/05:00am 10.1 8.6 8.5 90 0.8 SSW 6 9 3 5 1027.7 1027.7 0.0
21/04:30am 10.3 8.3 8.7 90 0.8 SSW 9 11 5 6 1027.7 - 0.0
21/04:00am 11.0 7.6 9.3 89 0.8 S 17 24 9 13 1027.7 1027.7 0.0
21/03:30am 12.0 9.2 8.5 79 1.7 S 13 17 7 9 1027.5 - 0.0
21/03:00am 12.3 9.1 8.4 77 1.9 SSW 15 22 8 12 1027.3 1027.3 0.0
21/02:30am 11.7 8.9 8.6 81 1.5 SSW 13 17 7 9 1027.2 - 0.0
21/02:00am 9.2 7.1 6.5 83 1.2 WSW 7 9 4 5 1027.3 1027.3 0.0
21/01:30am 8.8 6.6 6.2 84 1.2 WSW 7 9 4 5 1027.3 - 0.0
21/01:00am 7.4 5.2 6.0 91 0.6 WSW 7 11 4 6 1027.6 1027.6 0.0
21/12:30am 8.0 6.3 6.0 87 0.9 W 4 7 2 4 1027.6 - 0.0
21/12:00am 9.1 7.1 6.9 86 1.0 WNW 7 9 4 5 1027.5 1027.5 0.0
 
Date/Time
EST
Temp
°C
App
Temp
°C
Dew
Point
Rel
Hum
%
Delta-T
°C
Wind Press
QNH
hPa
Press
MSL
hPa
Rain
since 9 am
mm
Dir
 
Spd
km/h
Gust
km/h
Spd
kts
Gust
kts
20/11:30pm 7.9 5.4 6.4 90 0.7 W 9 13 5 7 1027.5 - 0.0
20/11:00pm 7.3 4.3 6.1 92 0.5 W 11 11 6 6 1027.6 1027.6 0.0
20/10:30pm 7.4 5.3 5.9 90 0.7 W 6 9 3 5 1027.7 - 0.0
20/10:00pm 8.6 5.8 7.1 90 0.7 W 11 13 6 7 1027.8 1027.8 0.0
20/09:30pm 8.1 5.6 6.4 89 0.8 W 9 13 5 7 1027.9 - 0.0
20/09:00pm 9.1 6.6 6.5 84 1.2 WSW 9 13 5 7 1027.7 1027.7 0.0
20/08:30pm 9.1 5.8 6.5 84 1.2 SSW 13 15 7 8 1027.5 - 0.0
20/08:00pm 8.9 6.5 6.9 87 0.9 SSW 9 13 5 7 1027.3 1027.3 0.0
20/07:30pm 9.2 6.8 6.8 85 1.1 SSW 9 13 5 7 1027.2 - 0.0
20/07:00pm 10.6 8.5 6.7 77 1.8 SSW 7 13 4 7 1027.0 1027.0 0.0
20/06:30pm 12.2 9.8 6.9 70 2.5 SSW 9 13 5 7 1026.5 - 0.0
20/06:00pm 12.2 10.2 6.9 70 2.5 S 7 11 4 6 1026.2 1026.2 0.0
20/05:30pm 13.2 10.1 7.2 67 2.9 S 13 19 7 10 1025.8 - 0.0
20/05:00pm 14.3 10.8 7.4 63 3.4 S 15 24 8 13 1025.6 1025.6 0.0
20/04:30pm 15.0 11.4 6.8 58 4.0 SSE 15 24 8 13 1025.2 - 0.0
20/04:00pm 15.1 11.0 6.4 56 4.2 SSE 17 24 9 13 1024.9 1024.9 0.0
20/03:30pm 15.3 12.0 6.6 56 4.2 SSE 13 20 7 11 1024.8 - 0.0
20/03:00pm 15.1 11.3 5.9 54 4.4 SE 15 24 8 13 1024.6 1024.6 0.0
20/02:30pm 15.5 11.4 6.0 53 4.6 SSE 17 26 9 14 1024.4 - 0.0
20/02:00pm 15.5 11.7 6.0 53 4.6 SSE 15 22 8 12 1024.4 1024.4 0.0
20/01:30pm 15.9 11.4 6.1 52 4.7 S 19 26 10 14 1024.3 - 0.0
20/01:00pm 15.4 10.9 5.9 53 4.5 S 19 26 10 14 1024.5 1024.5 0.0
20/12:30pm 15.6 11.5 6.3 54 4.5 SSE 17 28 9 15 1024.8 - 0.0
20/12:00pm 15.5 11.5 6.8 56 4.2 S 17 24 9 13 1025.1 1025.1 0.0
20/11:30am 15.0 10.8 5.8 54 4.4 S 17 30 9 16 1025.5 - 0.0
20/11:00am 14.5 9.3 5.3 54 4.3 S 22 32 12 17 1025.5 1025.5 0.0
20/10:30am 14.7 9.7 6.3 57 4.0 S 22 35 12 19 1025.6 - 0.0
20/10:00am 13.7 9.0 5.1 56 4.0 SSW 19 24 10 13 1025.5 1025.5 0.0
20/09:30am 13.9 9.1 5.8 58 3.8 S 20 30 11 16 1025.6 - 0.0
20/09:00am 13.3 8.6 5.9 61 3.5 S 20 28 11 15 1025.3 1025.3 0.6
20/08:30am 12.6 7.9 5.3 61 3.4 SW 19 26 10 14 1025.2 - 0.6
20/08:00am 12.3 7.4 5.2 62 3.3 SSW 20 33 11 18 1025.0 1025.0 0.6
20/07:30am 12.1 7.4 5.3 63 3.1 SSW 19 32 10 17 1024.7 - 0.6
20/07:00am 11.5 7.0 6.0 69 2.6 SSW 19 28 10 15 1024.4 1024.4 0.6
20/06:30am 11.3 6.2 6.0 70 2.5 SW 22 33 12 18 1024.0 - 0.6
20/06:00am 11.2 6.2 6.5 73 2.2 SW 22 35 12 19 1023.7 1023.7 0.6
20/05:30am 11.5 7.0 6.2 70 2.5 SSW 19 26 10 14 1023.6 - 0.6
20/05:00am 11.7 6.6 6.2 69 2.6 SSW 22 30 12 16 1022.9 1022.9 0.6
20/04:30am 11.0 6.5 7.1 77 1.9 SW 20 30 11 16 1022.8 - 0.6
20/04:00am 11.1 6.0 7.6 79 1.7 SW 24 33 13 18 1022.7 1022.7 0.6
20/03:30am 12.0 7.7 6.9 71 2.4 SSW 19 28 10 15 1022.4 - 0.6
20/03:00am 11.8 7.3 6.9 72 2.3 SW 20 30 11 16 1022.2 1022.2 0.6
20/02:30am 12.0 7.4 6.3 68 2.7 SSW 20 33 11 18 1022.2 - 0.6
20/02:00am 12.3 7.8 6.1 66 2.9 SSW 19 28 10 15 1022.3 1022.3 0.6
20/01:30am 12.5 7.4 6.1 65 3.0 SW 22 39 12 21 1022.4 - 0.6
20/01:00am 12.5 7.4 5.9 64 3.1 SSW 22 33 12 18 1022.4 1022.4 0.6
20/12:30am 12.5 7.0 5.7 63 3.2 SSW 24 39 13 21 1022.2 - 0.6
20/12:00am 12.8 7.4 6.2 64 3.1 SSW 24 39 13 21 1022.2 1022.2 0.6
 
Date/Time
EST
Temp
°C
App
Temp
°C
Dew
Point
Rel
Hum
%
Delta-T
°C
Wind Press
QNH
hPa
Press
MSL
hPa
Rain
since 9 am
mm
Dir
 
Spd
km/h
Gust
km/h
Spd
kts
Gust
kts
19/11:30pm 12.4 5.3 5.6 63 3.2 SW 32 44 17 24 1022.0 - 0.6
19/11:00pm 12.4 5.7 5.8 64 3.1 SSW 30 48 16 26 1022.1 1022.1 0.6
19/10:48pm 12.5 5.9 5.9 64 3.1 SSW 30 56 16 30 1022.1 - 0.6
19/10:30pm 12.7 7.1 5.4 61 3.4 SSW 24 43 13 23 1022.0 - 0.6
19/10:00pm 12.7 5.6 5.6 62 3.3 SSW 32 56 17 30 1022.0 1022.0 0.6
19/09:31pm 13.0 6.4 6.1 63 3.3 SSW 30 50 16 27 1021.9 - 0.6
19/09:30pm 12.9 6.7 6.0 63 3.3 SSW 28 41 15 22 1021.8 - 0.6
19/09:20pm 13.2 7.0 6.3 63 3.3 SSW 28 52 15 28 1021.8 - 0.6
19/09:00pm 13.1 8.1 6.5 64 3.1 SSW 22 41 12 22 1021.8 1021.8 0.6
19/08:33pm 13.3 7.1 6.2 62 3.4 SSW 28 48 15 26 1021.7 - 0.6
19/08:30pm 13.1 7.0 6.5 64 3.2 SSW 28 44 15 24 1021.7 - 0.6
19/08:00pm 13.1 8.7 7.3 68 2.8 SSW 20 41 11 22 1021.5 1021.5 0.6
19/07:30pm 13.3 7.8 7.5 68 2.8 SSW 26 41 14 22 1021.2 - 0.6
19/07:00pm 13.5 7.3 7.7 68 2.8 SSW 30 44 16 24 1020.9 1020.9 0.6
19/06:30pm 13.6 7.0 7.8 68 2.9 SSW 32 50 17 27 1020.2 - 0.6
19/06:13pm 13.5 7.7 7.9 69 2.8 S 28 46 15 25 1020.0 - 0.6
19/06:00pm 13.9 7.7 7.9 67 3.0 S 30 44 16 24 1019.7 1019.7 0.6
19/05:30pm 13.9 7.7 7.9 67 3.0 S 30 43 16 23 1019.3 - 0.6
19/05:00pm 14.2 7.1 8.2 67 3.0 SSW 35 54 19 29 1018.9 1018.9 0.6
19/04:39pm 14.0 7.7 9.0 72 2.5 SSW 32 50 17 27 1018.8 - 0.6
19/04:30pm 13.9 7.3 8.7 71 2.6 S 33 48 18 26 1018.5 - 0.6
19/04:00pm 13.9 7.6 8.9 72 2.5 SSW 32 50 17 27 1018.3 1018.3 0.6
19/03:30pm 14.0 8.0 10.2 78 2.0 SSW 32 61 17 33 1018.0 - 0.6
19/03:04pm 14.3 8.2 10.5 78 2.0 SSW 33 52 18 28 1017.9 - 0.4
19/03:00pm 14.4 8.4 10.0 75 2.3 SSW 32 46 17 25 1017.8 1017.8 0.4
19/02:30pm 15.2 8.9 9.8 70 2.8 SSW 33 59 18 32 1017.3 - 0.4
19/02:00pm 15.2 9.2 10.0 71 2.7 SSW 32 50 17 27 1016.8 1016.8 0.4
19/01:32pm 15.4 10.1 11.2 76 2.2 SSW 30 48 16 26 1016.6 - 0.4
19/01:30pm 15.6 10.3 11.4 76 2.3 SSW 30 44 16 24 1016.6 - 0.4
19/01:01pm 15.8 9.8 10.8 72 2.7 SSW 33 52 18 28 1016.3 - 0.4
19/01:00pm 15.7 9.2 10.5 71 2.7 SSW 35 52 19 28 1016.4 1016.4 0.4
19/12:30pm 15.9 11.0 11.3 74 2.5 SSW 28 50 15 27 1016.6 - 0.4
19/12:22pm 15.7 10.7 10.9 73 2.6 SSW 28 46 15 25 1016.7 - 0.4
19/12:00pm 15.4 10.4 10.8 74 2.4 SSW 28 39 15 21 1017.0 1017.0 0.4
19/11:32am 14.9 10.1 11.7 81 1.7 SSW 28 46 15 25 1017.1 - 0.4
19/11:30am 14.9 10.9 11.7 81 1.7 SSW 24 39 13 21 1017.1 - 0.4
19/11:09am 14.7 9.5 11.7 82 1.6 SSW 30 54 16 29 1017.2 - 0.4
19/11:00am 14.7 9.9 11.7 82 1.6 SSW 28 37 15 20 1017.1 1017.1 0.4
19/10:42am 14.9 10.2 11.9 82 1.6 SSW 28 46 15 25 1017.1 - 0.2
19/10:30am 15.2 10.0 11.6 79 1.9 SSW 30 44 16 24 1016.9 - 0.2
19/10:14am 14.6 9.7 11.2 80 1.8 SSW 28 50 15 27 1016.8 - 0.2
19/10:00am 14.9 9.4 11.7 81 1.7 SSW 32 46 17 25 1016.7 1016.7 0.2
19/09:41am 14.3 9.1 11.5 83 1.5 SSW 30 50 16 27 1016.9 - 0.2
19/09:30am 14.9 10.2 11.9 82 1.6 SSW 28 43 15 23 1016.8 - 0.0
19/09:00am 14.3 10.0 10.9 80 1.8 SSW 24 39 13 21 1016.5 1016.5 49.0
19/08:30am 13.8 8.8 10.8 82 1.6 SSW 28 48 15 26 1016.3 - 49.0
19/08:26am 13.6 8.6 10.9 84 1.4 SSW 28 48 15 26 1016.2 - 49.0
19/08:00am 14.0 9.0 10.8 81 1.7 SSW 28 43 15 23 1015.8 1015.8 49.0
19/07:30am 13.7 9.5 11.0 84 1.4 SSW 24 44 13 24 1015.6 - 48.8
19/07:00am 13.5 8.6 11.4 87 1.1 S 28 41 15 22 1015.2 1015.2 48.6
19/06:30am 13.5 8.9 10.9 84 1.4 S 26 39 14 21 1014.7 - 48.2
19/06:01am 12.9 8.3 11.1 89 0.9 S 26 39 14 21 1014.5 - 48.2
19/06:00am 12.9 8.4 11.3 90 0.8 S 26 37 14 20 1014.5 1014.5 48.2
19/05:30am 13.2 7.7 11.8 91 0.7 S 32 50 17 27 1013.9 - 47.0
19/05:22am 13.5 8.2 11.4 87 1.1 S 30 48 16 26 1014.2 - 46.8
19/05:00am 13.7 8.4 11.2 85 1.3 S 30 54 16 29 1013.6 1013.6 46.2
19/04:55am 13.7 8.0 11.2 85 1.3 S 32 54 17 29 1013.6 - 46.2
19/04:52am 13.7 8.0 11.2 85 1.3 S 32 46 17 25 1013.6 - 46.2
19/04:33am 13.4 7.9 11.8 90 0.9 S 32 65 17 35 1013.5 - 46.2
19/04:32am 13.4 8.3 11.8 90 0.9 S 30 52 16 28 1013.5 - 46.0
19/04:30am 13.7 8.7 12.1 90 0.9 S 30 41 16 22 1013.5 - 45.8
19/04:11am 13.1 9.2 12.0 93 0.6 S 24 33 13 18 1013.4 - 45.2
19/04:00am 13.1 7.0 11.7 91 0.7 S 35 54 19 29 1013.3 1013.3 45.0
19/03:59am 13.1 7.0 11.7 91 0.7 S 35 54 19 29 1013.3 - 45.0
19/03:30am 13.3 6.0 11.4 88 1.0 S 41 61 22 33 1013.0 - 44.8
19/03:26am 13.3 5.5 11.0 86 1.2 S 43 61 23 33 1013.0 - 44.8
19/03:25am 13.2 5.8 11.1 87 1.1 S 41 54 22 29 1013.0 - 44.8
19/03:11am 13.3 7.8 12.4 94 0.5 S 33 52 18 28 1013.0 - 44.6
19/03:05am 13.5 6.8 12.2 92 0.7 S 39 52 21 28 1012.7 - 44.4
19/03:03am 13.6 6.9 12.2 91 0.8 S 39 52 21 28 1012.7 - 44.2
19/03:00am 13.8 7.7 11.8 88 1.1 S 35 50 19 27 1012.5 1012.5 43.8
19/02:30am 13.3 8.6 11.9 91 0.7 S 28 39 15 21 1012.3 - 43.6
19/02:00am 13.3 8.6 11.9 91 0.7 S 28 43 15 23 1012.4 1012.4 43.2
19/01:47am 13.3 8.2 11.9 91 0.7 S 30 46 16 25 1012.2 - 43.2
19/01:37am 13.5 7.0 11.6 88 1.0 S 37 57 20 31 1012.3 - 43.2
19/01:33am 13.8 8.1 11.7 87 1.1 S 33 54 18 29 1012.3 - 43.0
19/01:31am 14.0 8.8 11.7 86 1.2 S 30 48 16 26 1012.2 - 43.0
19/01:30am 14.0 8.8 11.5 85 1.3 S 30 43 16 23 1012.2 - 43.0
19/01:15am 13.5 7.8 11.9 90 0.9 S 33 46 18 25 1012.2 - 43.0
19/01:04am 13.3 7.8 12.5 95 0.4 S 33 52 18 28 1012.2 - 42.8
19/01:00am 13.2 8.3 12.7 97 0.3 S 30 46 16 25 1012.2 1012.2 42.8
19/12:53am 13.3 8.5 12.8 97 0.3 S 30 46 16 25 1012.1 - 42.2
19/12:30am 13.1 10.4 12.9 99 0.1 SSE 19 28 10 15 1011.8 - 41.0
19/12:07am 13.2 10.4 12.7 97 0.3 SE 19 30 10 16 1012.1 - 37.0
19/12:05am 13.2 10.4 12.7 97 0.3 SE 19 30 10 16 1012.1 - 36.0
19/12:00am 13.2 10.2 12.6 96 0.3 SSE 20 30 11 16 1011.9 1011.9 35.8
 
Date/Time
EST
Temp
°C
App
Temp
°C
Dew
Point
Rel
Hum
%
Delta-T
°C
Wind Press
QNH
hPa
Press
MSL
hPa
Rain
since 9 am
mm
Dir
 
Spd
km/h
Gust
km/h
Spd
kts
Gust
kts
18/11:56pm 13.0 9.2 12.4 96 0.3 S 24 32 13 17 1011.7 - 35.8
18/11:52pm 13.0 9.6 12.5 97 0.3 S 22 32 12 17 1011.7 - 35.6
18/11:33pm 13.0 9.6 12.5 97 0.3 S 22 30 12 16 1011.8 - 35.0
18/11:31pm 13.1 9.4 12.6 97 0.3 S 24 35 13 19 1011.8 - 34.8
18/11:30pm 13.1 9.3 12.5 96 0.3 S 24 35 13 19 1011.8 - 34.8
18/11:17pm 13.2 8.6 12.4 95 0.4 S 28 39 15 21 1011.6 - 34.4
18/11:01pm 13.4 8.5 12.5 94 0.5 S 30 39 16 21 1011.3 - 33.8
18/11:00pm 13.4 8.5 12.5 94 0.5 S 30 39 16 21 1011.2 1011.2 33.8
18/10:33pm 13.3 7.9 12.7 96 0.3 S 33 52 18 28 1011.2 - 33.8
18/10:30pm 13.4 7.6 12.8 96 0.3 S 35 52 19 28 1011.1 - 33.6
18/10:28pm 13.4 8.2 12.8 96 0.3 S 32 52 17 28 1011.1 - 33.6
18/10:00pm 13.5 8.4 13.0 97 0.3 S 32 46 17 25 1011.0 1011.0 33.4
18/09:52pm 13.5 8.8 13.2 98 0.2 S 30 43 16 23 1010.9 - 33.4
18/09:49pm 13.5 8.8 13.2 98 0.2 S 30 43 16 23 1010.9 - 33.2
18/09:33pm 13.3 9.0 13.1 99 0.1 S 28 48 15 26 1010.8 - 33.2
18/09:30pm 13.3 9.7 13.1 99 0.1 S 24 41 13 22 1010.8 - 33.2
18/09:00pm 13.4 8.6 12.8 96 0.3 S 30 46 16 25 1010.3 1010.3 30.4
18/08:47pm 13.6 8.2 12.8 95 0.4 S 33 48 18 26 1010.3 - 30.0
18/08:39pm 13.6 8.3 13.0 96 0.3 S 33 50 18 27 1010.3 - 29.8
18/08:30pm 13.5 8.4 13.0 97 0.3 S 32 52 17 28 1010.2 - 29.8
18/08:02pm 13.3 8.6 13.1 99 0.1 S 30 48 16 26 1010.1 - 29.0
18/08:00pm 13.4 9.1 13.2 99 0.1 S 28 39 15 21 1010.0 1010.0 28.8
18/07:30pm 13.4 7.7 13.1 98 0.2 S 35 50 19 27 1009.5 - 26.6
18/07:00pm 13.5 8.2 12.6 94 0.5 SSW 32 52 17 28 1009.0 1009.0 23.8
18/06:34pm 13.5 8.3 12.7 95 0.4 SSW 32 57 17 31 1008.8 - 22.8
18/06:30pm 13.5 8.0 12.6 94 0.5 SSW 33 46 18 25 1008.7 - 22.6
18/06:26pm 13.5 7.6 12.4 93 0.6 SSW 35 46 19 25 1008.6 - 22.4
18/06:00pm 13.3 8.4 12.4 94 0.5 SSW 30 52 16 28 1008.2 1008.2 21.2
18/05:54pm 13.2 8.2 12.3 94 0.5 SSW 30 52 16 28 1008.2 - 21.0
18/05:30pm 13.3 7.7 12.2 93 0.6 SSW 33 56 18 30 1008.0 - 19.8
18/05:00pm 13.3 7.2 11.9 91 0.8 SSW 35 54 19 29 1007.4 1007.4 18.6
18/04:30pm 13.7 7.6 11.9 89 1.0 SSW 35 54 19 29 1007.1 - 17.8
18/04:00pm 13.5 7.4 11.9 90 0.9 SSW 35 54 19 29 1007.0 1007.0 17.2
18/03:48pm 13.6 8.2 12.2 91 0.8 SSW 32 50 17 27 1006.9 - 16.8
18/03:45pm 13.6 7.5 11.8 89 1.0 SSW 35 46 19 25 1006.9 - 16.6
18/03:43pm 13.6 3.3 11.8 89 1.0 SSW 57 76 31 41 1007.0 - 16.6
18/03:34pm 13.3 6.6 12.4 94 0.5 S 39 61 21 33 1006.9 - 16.6
18/03:30pm 13.3 7.3 12.2 93 0.6 S 35 50 19 27 1006.9 - 16.2
18/03:00pm 12.9 7.5 12.1 95 0.4 S 32 48 17 26 1006.7 1006.7 15.6
18/02:40pm 13.5 7.4 11.9 90 0.9 S 35 56 19 30 1006.7 - 14.8
18/02:30pm 13.4 7.9 12.3 93 0.6 S 33 46 18 25 1006.7 - 14.8
18/02:08pm 13.3 7.4 12.5 95 0.4 S 35 54 19 29 1006.8 - 14.6
18/02:00pm 13.4 7.5 12.5 94 0.5 S 35 50 19 27 1006.9 1006.9 14.2
18/01:38pm 13.3 7.9 12.7 96 0.3 S 33 52 18 28 1006.9 - 13.6
18/01:30pm 13.2 8.4 12.9 98 0.2 S 30 41 16 22 1006.9 - 13.2
18/01:00pm 13.0 7.6 12.7 98 0.2 S 33 54 18 29 1006.7 1006.7 11.6
18/12:32pm 12.6 7.9 12.1 97 0.3 SSE 28 59 15 32 1007.1 - 10.2
18/12:30pm 12.9 9.1 12.4 97 0.3 SSE 24 44 13 24 1007.1 - 9.6

Other Formats:

Comma delimited format used in spreadsheet applications
http://www.bom.gov.au/fwo/IDN60801/IDN60801.95748.axf

JavaScript Object Notation format (JSON) in row-major order
http://www.bom.gov.au/fwo/IDN60801/IDN60801.95748.json